Air Resources Laboratory banner image
Air Resources Laboratory web site National Oceanic and Atmospheric Administration (NOAA)

de metar


KDOV 171256Z 22009KT 10SM FEW050 FEW120 SCT230 29/23 A2989 RMK AO2A SLP125
 T02880232 $=
KGED 171254Z AUTO 21009KT 10SM CLR 29/24 A2991 RMK AO2 SLP127 T02890239=
KILG 171251Z 23010KT 10SM FEW016 28/23 A2989 RMK AO2 SLP120 T02780228=